Time;durP1;ratioP1;P1;durP2;ratioP2;P2;SDS_P1;SDS_P2;PMS_P1;PMS_P2;Temp;Humidity;BMP_temperature;BMP_pressure;BME280_temperature;BME280_humidity;BME280_pressure;Samples;Min_cycle;Max_cycle;Signal;HPM_P1;HPM_P2
2023/01/31 00:01:32;;;;;;;20.98;4.65;;;5.10;99.90;;;;;;4977382;28;20554;-91
2023/01/31 00:04:01;;;;;;;18.92;4.43;;;5.10;94.60;;;;;;4980759;28;20210;-91
2023/01/31 00:06:56;;;;;;;24.33;6.35;;;5.10;3.50;;;;;;4997180;28;20187;-91
2023/01/31 00:09:29;;;;;;;21.35;6.18;;;5.00;18.80;;;;;;4927221;29;20193;-91
2023/01/31 00:11:54;;;;;;;18.92;4.75;;;5.00;34.60;;;;;;4969123;28;20191;-89
2023/01/31 00:14:20;;;;;;;23.20;4.20;;;4.90;42.80;;;;;;4974886;28;20222;-91
2023/01/31 00:16:46;;;;;;;14.97;4.00;;;4.90;99.90;;;;;;4982949;28;20179;-89
2023/01/31 00:19:12;;;;;;;29.93;5.23;;;4.80;99.90;;;;;;4987025;28;20679;-91
2023/01/31 00:21:40;;;;;;;14.97;4.67;;;4.80;99.90;;;;;;4991487;28;20440;-91
2023/01/31 00:24:06;;;;;;;15.15;3.60;;;4.70;99.90;;;;;;4975961;28;20216;-91
2023/01/31 00:26:33;;;;;;;16.70;5.00;;;4.60;99.90;;;;;;4978744;28;20191;-90
2023/01/31 00:29:00;;;;;;;22.75;5.63;;;4.60;99.90;;;;;;4979117;28;20569;-90
2023/01/31 00:31:28;;;;;;;18.80;5.30;;;4.50;99.90;;;;;;4974711;28;20594;-89
2023/01/31 00:33:55;;;;;;;16.95;5.55;;;4.50;99.90;;;;;;4971615;28;20211;-90
2023/01/31 00:36:24;;;;;;;25.55;5.40;;;4.50;1.00;;;;;;4979728;28;20183;-91
2023/01/31 00:38:54;;;;;;;52.65;5.93;;;4.40;1.00;;;;;;4977545;28;20188;-91
2023/01/31 00:41:22;;;;;;;19.08;4.72;;;4.40;1.00;;;;;;4985559;28;20273;-91
2023/01/31 00:43:49;;;;;;;20.50;4.45;;;4.30;1.00;;;;;;4982917;28;20254;-91
2023/01/31 00:46:15;;;;;;;18.42;6.55;;;4.30;1.00;;;;;;4978353;28;20199;-90
2023/01/31 00:48:40;;;;;;;11.57;4.32;;;4.30;1.00;;;;;;4976311;28;20266;-91
2023/01/31 00:51:06;;;;;;;17.30;5.30;;;4.30;1.00;;;;;;4985335;28;20300;-91
2023/01/31 00:53:32;;;;;;;26.77;5.07;;;4.30;1.00;;;;;;4983538;28;20294;-91
2023/01/31 01:00:14;;;;;;;;;;;;;;;;;;;;;
2023/01/31 01:03:51;;;;;;;;;;;;;;;;;;;;;
2023/01/31 01:07:13;;;;;;;24.88;6.18;;;4.20;1.00;;;;;;4994720;28;20180;-91
2023/01/31 01:10:17;;;;;;;20.65;5.13;;;4.20;1.00;;;;;;4931900;28;20191;-91
2023/01/31 01:17:17;;;;;;;20.33;4.95;;;4.10;1.00;;;;;;4971400;28;20215;-91
2023/01/31 01:20:05;;;;;;;20.77;5.40;;;4.20;1.00;;;;;;4960692;28;20195;-90
2023/01/31 01:25:58;;;;;;;18.27;4.30;;;4.30;23.20;;;;;;5002790;28;20662;-90
2023/01/31 01:28:26;;;;;;;18.17;4.35;;;4.40;1.00;;;;;;4994447;28;20175;-91
2023/01/31 01:30:55;;;;;;;20.50;5.07;;;4.40;1.00;;;;;;4992200;28;20187;-90
2023/01/31 01:33:21;;;;;;;11.30;4.00;;;4.40;1.00;;;;;;4976445;28;20216;-91
2023/01/31 01:35:46;;;;;;;14.00;3.90;;;4.50;1.00;;;;;;4987980;28;20273;-91
2023/01/31 01:38:15;;;;;;;19.77;4.77;;;4.50;1.00;;;;;;4977182;28;20235;-90
2023/01/31 01:40:43;;;;;;;16.92;4.00;;;4.50;1.00;;;;;;4983906;28;20936;-89
2023/01/31 01:43:10;;;;;;;19.02;5.85;;;4.40;1.00;;;;;;4990958;28;20714;-90
2023/01/31 01:45:36;;;;;;;15.60;4.43;;;4.40;1.00;;;;;;4984380;28;20179;-91
2023/01/31 01:48:12;;;;;;;19.55;5.28;;;4.40;1.00;;;;;;4981832;28;20190;-90
2023/01/31 01:50:46;;;;;;;15.23;6.05;;;4.30;1.00;;;;;;5000554;28;20742;-91
2023/01/31 01:53:19;;;;;;;14.75;5.50;;;4.30;1.00;;;;;;4973423;28;20211;-91
2023/01/31 01:55:50;;;;;;;12.43;4.90;;;4.30;1.00;;;;;;4999219;28;20592;-91
2023/01/31 01:58:22;;;;;;;18.85;5.93;;;4.30;1.00;;;;;;4994608;28;20179;-91
2023/01/31 02:00:49;;;;;;;24.05;5.28;;;4.20;1.00;;;;;;4982696;28;20282;-91
2023/01/31 02:03:15;;;;;;;14.10;4.05;;;4.20;1.00;;;;;;4974342;28;20257;-91
2023/01/31 02:05:53;;;;;;;19.05;5.53;;;4.20;1.00;;;;;;4977680;28;20560;-91
2023/01/31 02:08:39;;;;;;;16.73;4.93;;;4.20;1.00;;;;;;4976959;28;20207;-91
2023/01/31 02:11:57;;;;;;;;;;;;;;;;;;;;;
2023/01/31 02:14:58;;;;;;;;;;;;;;;;;;;;;
2023/01/31 02:18:01;;;;;;;17.90;5.60;;;4.10;1.00;;;;;;4992642;28;20556;-90
2023/01/31 02:21:10;;;;;;;18.45;6.90;;;4.10;1.00;;;;;;4960633;28;20191;-91
2023/01/31 02:35:36;;;;;;;22.90;5.57;;;4.10;99.90;;;;;;5010689;28;20241;-91
2023/01/31 02:38:52;;;;;;;;;;;;;;;;;;;;;
2023/01/31 02:42:25;;;;;;;22.25;5.50;;;4.10;99.90;;;;;;5009857;28;20189;-90
2023/01/31 02:45:11;;;;;;;;;;;;;;;;;;;;;
2023/01/31 02:48:05;;;;;;;26.15;5.70;;;4.10;99.90;;;;;;5014278;28;20177;-90
2023/01/31 02:50:54;;;;;;;23.98;5.40;;;4.10;99.90;;;;;;5008134;28;20178;-90
2023/01/31 02:53:30;;;;;;;23.88;5.88;;;4.10;99.90;;;;;;4995922;28;20289;-91
2023/01/31 02:56:18;;;;;;;27.00;5.93;;;4.10;99.90;;;;;;5006560;28;20188;-90
2023/01/31 02:58:58;;;;;;;26.45;6.10;;;4.00;99.90;;;;;;5001456;28;20204;-90
2023/01/31 03:01:31;;;;;;;31.20;7.00;;;4.00;99.90;;;;;;4996838;28;20183;-90
2023/01/31 03:04:11;;;;;;;17.27;5.80;;;4.00;99.90;;;;;;4988269;28;20242;-90
2023/01/31 03:06:44;;;;;;;25.92;5.57;;;4.00;99.90;;;;;;4997701;28;20182;-90
2023/01/31 03:09:35;;;;;;;23.77;6.03;;;4.00;99.90;;;;;;4992359;28;20221;-90
2023/01/31 03:12:35;;;;;;;16.00;6.28;;;4.00;99.90;;;;;;4998926;28;20193;-92
2023/01/31 03:15:18;;;;;;;29.30;7.65;;;3.90;99.90;;;;;;5003142;28;20210;-91
2023/01/31 03:18:07;;;;;;;23.55;6.55;;;3.90;99.90;;;;;;4989605;28;20194;-91
2023/01/31 03:20:43;;;;;;;15.23;8.63;;;3.90;99.90;;;;;;5016672;28;20691;-90
2023/01/31 03:23:25;;;;;;;15.80;7.22;;;3.80;99.90;;;;;;4997496;28;20225;-89
2023/01/31 03:25:54;;;;;;;25.70;7.80;;;3.80;99.90;;;;;;5012516;28;20677;-89
2023/01/31 03:28:24;;;;;;;24.98;8.13;;;3.80;99.90;;;;;;5010637;28;20286;-90
2023/01/31 03:31:25;;;;;;;36.33;9.82;;;3.70;1.00;;;;;;5005549;28;20221;-90
2023/01/31 03:33:54;;;;;;;24.75;8.23;;;3.70;1.00;;;;;;4995696;28;20218;-91
2023/01/31 03:36:38;;;;;;;24.30;8.38;;;3.70;1.00;;;;;;5005177;28;20204;-90
2023/01/31 03:39:21;;;;;;;31.75;9.40;;;3.70;1.00;;;;;;5002404;28;20195;-90
2023/01/31 03:42:01;;;;;;;26.90;9.07;;;3.70;1.00;;;;;;4995039;28;20190;-90
2023/01/31 03:44:46;;;;;;;23.85;8.38;;;3.70;1.00;;;;;;4992014;28;20222;-91
2023/01/31 03:47:20;;;;;;;22.98;8.25;;;3.70;1.00;;;;;;4998196;28;20194;-90
2023/01/31 03:49:49;;;;;;;34.63;9.00;;;3.70;1.00;;;;;;5008395;28;20174;-90
2023/01/31 03:52:22;;;;;;;28.38;10.05;;;3.70;1.00;;;;;;5013094;28;20171;-90
2023/01/31 03:54:53;;;;;;;25.95;10.00;;;3.70;1.00;;;;;;5000179;28;20202;-90
2023/01/31 03:57:29;;;;;;;28.45;9.00;;;3.70;1.00;;;;;;4986843;28;20187;-90
2023/01/31 03:59:58;;;;;;;22.50;9.70;;;3.70;1.00;;;;;;4996213;28;20546;-90
2023/01/31 04:02:31;;;;;;;24.17;10.30;;;3.70;1.00;;;;;;4995167;28;20233;-90
2023/01/31 04:05:17;;;;;;;28.58;10.10;;;3.70;1.00;;;;;;4993900;28;20252;-90
2023/01/31 04:07:45;;;;;;;30.73;10.27;;;3.80;1.00;;;;;;4997609;28;20183;-90
2023/01/31 04:10:16;;;;;;;29.67;9.30;;;3.80;1.00;;;;;;5014264;28;20183;-91
2023/01/31 04:12:42;;;;;;;23.83;9.98;;;3.90;1.00;;;;;;5013420;28;20293;-90
2023/01/31 04:15:13;;;;;;;24.97;9.40;;;4.00;1.00;;;;;;4996288;28;20199;-90
2023/01/31 04:17:38;;;;;;;27.55;10.48;;;4.00;1.00;;;;;;4997830;28;20228;-89
2023/01/31 04:20:05;;;;;;;26.23;10.37;;;4.10;1.00;;;;;;4996986;28;20694;-90
2023/01/31 04:22:31;;;;;;;19.92;10.15;;;4.20;1.00;;;;;;4998477;28;20764;-90
2023/01/31 04:24:57;;;;;;;32.00;10.73;;;4.20;1.00;;;;;;5001688;28;20298;-90
2023/01/31 04:27:23;;;;;;;28.70;10.80;;;4.20;1.00;;;;;;4996414;28;20183;-91
2023/01/31 04:29:48;;;;;;;35.58;11.90;;;4.30;1.00;;;;;;4998839;28;20206;-90
2023/01/31 04:32:14;;;;;;;35.67;10.07;;;4.30;1.00;;;;;;5001122;28;20284;-91
2023/01/31 04:34:39;;;;;;;25.43;11.13;;;4.30;1.00;;;;;;5016910;28;20229;-90
2023/01/31 04:37:05;;;;;;;33.07;8.57;;;4.30;1.00;;;;;;4994766;28;20191;-90
2023/01/31 04:39:31;;;;;;;26.67;10.00;;;4.30;1.00;;;;;;5016775;28;20193;-91
2023/01/31 04:41:56;;;;;;;31.43;10.40;;;4.30;1.00;;;;;;5000281;28;20601;-90
2023/01/31 04:44:22;;;;;;;36.70;9.77;;;4.30;1.00;;;;;;4992435;28;20726;-91
2023/01/31 04:46:53;;;;;;;31.90;9.90;;;4.30;1.00;;;;;;4994371;28;20201;-89
2023/01/31 04:49:21;;;;;;;34.17;10.05;;;4.30;1.00;;;;;;4997038;28;20179;-90
2023/01/31 04:51:50;;;;;;;27.00;9.45;;;4.30;1.00;;;;;;5001230;28;20190;-89
2023/01/31 04:54:16;;;;;;;28.25;9.45;;;4.30;1.00;;;;;;5004141;28;20218;-90
2023/01/31 04:56:41;;;;;;;31.97;10.93;;;4.30;1.00;;;;;;5001788;28;20241;-90
2023/01/31 04:59:07;;;;;;;34.30;10.33;;;4.30;1.00;;;;;;4995017;28;20215;-90
2023/01/31 05:01:33;;;;;;;31.23;9.37;;;4.30;1.00;;;;;;5016928;28;20554;-91
2023/01/31 05:03:58;;;;;;;38.30;10.87;;;4.40;1.00;;;;;;4993085;28;20218;-90
2023/01/31 05:06:29;;;;;;;23.37;8.73;;;4.50;1.00;;;;;;4987679;28;20194;-92
2023/01/31 05:08:54;;;;;;;26.27;7.80;;;4.50;1.00;;;;;;4975360;28;20663;-90
2023/01/31 05:11:20;;;;;;;28.20;9.53;;;4.60;1.00;;;;;;4992554;28;20182;-90
2023/01/31 05:13:46;;;;;;;26.33;10.40;;;4.60;1.00;;;;;;4996847;28;20209;-90
2023/01/31 05:16:13;;;;;;;21.45;9.95;;;4.70;1.00;;;;;;5024596;28;20436;-90
2023/01/31 05:18:39;;;;;;;38.00;9.10;;;4.70;1.00;;;;;;5022767;28;20182;-90
2023/01/31 05:21:07;;;;;;;35.85;10.20;;;4.70;1.00;;;;;;4988771;28;20323;-90
2023/01/31 05:23:33;;;;;;;29.55;9.48;;;4.70;1.00;;;;;;4988437;28;20223;-90
2023/01/31 05:25:59;;;;;;;31.75;9.15;;;4.70;1.00;;;;;;5005400;28;20232;-90
2023/01/31 05:28:25;;;;;;;23.00;8.40;;;4.70;1.00;;;;;;5018156;28;20218;-90
2023/01/31 05:31:00;;;;;;;27.00;8.97;;;4.70;1.00;;;;;;5003320;28;20664;-91
2023/01/31 05:33:26;;;;;;;35.63;9.48;;;4.70;1.00;;;;;;4999933;28;20480;-90
2023/01/31 05:35:58;;;;;;;27.70;8.20;;;4.70;1.00;;;;;;4993111;28;20201;-90
2023/01/31 05:38:24;;;;;;;27.83;8.20;;;4.60;1.00;;;;;;5004212;28;20217;-90
2023/01/31 05:40:49;;;;;;;25.77;7.83;;;4.60;99.90;;;;;;5002472;28;20732;-90
2023/01/31 05:43:18;;;;;;;31.60;9.60;;;4.60;99.90;;;;;;4994827;28;20214;-90
2023/01/31 05:45:44;;;;;;;27.83;8.30;;;4.60;99.90;;;;;;4992860;28;20442;-90
2023/01/31 05:48:10;;;;;;;35.60;8.88;;;4.60;99.90;;;;;;4995124;28;20565;-90
2023/01/31 05:50:35;;;;;;;30.02;8.48;;;4.50;99.90;;;;;;4983858;28;20179;-90
2023/01/31 05:53:04;;;;;;;19.07;7.60;;;4.50;99.90;;;;;;5001688;28;20736;-91
2023/01/31 05:55:48;;;;;;;24.08;8.25;;;4.50;99.90;;;;;;4997066;28;20592;-89
2023/01/31 05:58:15;;;;;;;16.52;8.15;;;4.40;99.90;;;;;;4989006;28;20250;-91
2023/01/31 06:00:43;;;;;;;24.25;9.13;;;4.40;99.90;;;;;;5020024;28;20205;-90
2023/01/31 06:03:11;;;;;;;25.17;8.63;;;4.30;99.90;;;;;;5001716;28;20219;-89
2023/01/31 06:05:39;;;;;;;32.30;7.47;;;4.30;99.90;;;;;;4992912;28;20190;-90
2023/01/31 06:10:59;;;;;;;24.23;7.38;;;4.30;99.90;;;;;;5009991;28;20209;-90
2023/01/31 06:13:36;;;;;;;24.45;6.78;;;4.40;99.90;;;;;;4999537;28;20233;-91
2023/01/31 06:16:02;;;;;;;20.33;6.45;;;4.40;99.90;;;;;;5013025;28;20191;-90
2023/01/31 06:18:36;;;;;;;18.37;6.00;;;4.40;99.90;;;;;;4995741;28;20541;-90
2023/01/31 06:21:20;;;;;;;28.38;8.25;;;4.50;99.90;;;;;;4989225;28;20217;-89
2023/01/31 06:23:46;;;;;;;18.88;6.03;;;4.50;99.90;;;;;;5008382;28;20210;-90
2023/01/31 06:26:13;;;;;;;21.63;6.20;;;4.50;99.90;;;;;;4997468;28;20190;-89
2023/01/31 06:28:38;;;;;;;20.58;5.85;;;4.50;99.90;;;;;;5005632;28;20182;-90
2023/01/31 06:31:09;;;;;;;61.40;6.50;;;4.50;99.90;;;;;;5022867;28;20178;-91
2023/01/31 06:33:34;;;;;;;14.55;6.00;;;4.50;99.90;;;;;;4997257;28;20725;-91
2023/01/31 06:36:00;;;;;;;19.73;6.10;;;4.60;99.90;;;;;;4995680;28;20186;-90
2023/01/31 06:38:30;;;;;;;21.42;7.38;;;4.60;99.90;;;;;;4991414;28;20213;-90
2023/01/31 06:40:55;;;;;;;16.25;5.47;;;4.60;99.90;;;;;;5003916;28;20193;-90
2023/01/31 06:43:24;;;;;;;14.47;4.60;;;4.70;99.90;;;;;;5013312;28;20577;-90
2023/01/31 06:45:50;;;;;;;16.10;5.03;;;4.70;99.90;;;;;;5026641;28;20187;-91
2023/01/31 06:48:22;;;;;;;16.70;5.23;;;4.70;99.90;;;;;;4994639;28;20555;-90
2023/01/31 06:50:51;;;;;;;15.63;5.60;;;4.60;99.90;;;;;;4998223;28;20187;-90
2023/01/31 06:53:17;;;;;;;14.35;4.82;;;4.50;99.90;;;;;;4993366;28;20207;-90
2023/01/31 06:56:07;;;;;;;17.97;5.20;;;4.50;99.90;;;;;;4997266;28;20198;-90
2023/01/31 06:58:41;;;;;;;15.50;5.38;;;4.50;99.90;;;;;;5001845;28;20193;-90
2023/01/31 07:01:44;;;;;;;19.77;5.78;;;4.50;99.90;;;;;;5018016;28;20245;-90
2023/01/31 07:04:56;;;;;;;9.68;4.50;;;4.50;99.90;;;;;;4992740;28;20603;-90
2023/01/31 07:08:02;;;;;;;15.32;5.15;;;4.50;99.90;;;;;;4997782;28;20248;-91
2023/01/31 07:10:27;;;;;;;19.65;4.78;;;4.50;99.90;;;;;;5014308;28;20183;-89
2023/01/31 07:20:07;;;;;;;10.02;4.10;;;4.90;99.90;;;;;;4960606;28;20593;-90
2023/01/31 07:28:34;;;;;;;10.98;3.38;;;5.10;1.00;;;;;;5018903;28;20246;-91
2023/01/31 07:38:15;;;;;;;12.70;3.90;;;5.30;1.00;;;;;;4920187;29;20186;-90
2023/01/31 07:51:01;;;;;;;18.95;3.92;;;5.40;1.00;;;;;;4994250;28;20342;-90
2023/01/31 07:56:57;;;;;;;18.13;5.68;;;5.50;4.40;;;;;;4983744;28;20196;-89
2023/01/31 07:59:26;;;;;;;18.15;4.30;;;5.60;1.00;;;;;;4972577;28;20254;-89
2023/01/31 08:05:24;;;;;;;10.80;3.78;;;5.90;1.00;;;;;;4986320;28;20235;-91
2023/01/31 08:10:46;;;;;;;17.00;3.90;;;6.20;99.90;;;;;;4995317;28;20279;-89
2023/01/31 08:13:30;;;;;;;8.32;3.30;;;6.20;1.00;;;;;;4990528;28;20287;-90
2023/01/31 08:19:18;;;;;;;14.73;5.80;;;6.20;1.00;;;;;;4983252;28;20186;-90
2023/01/31 08:31:53;;;;;;;18.00;3.90;;;6.50;99.90;;;;;;4880550;29;20266;-90
2023/01/31 08:44:22;;;;;;;13.70;3.65;;;7.40;1.00;;;;;;4987688;28;20583;-89
2023/01/31 08:50:07;;;;;;;13.13;4.25;;;7.70;1.00;;;;;;4946873;29;20502;-89
2023/01/31 08:56:15;;;;;;;15.80;4.07;;;7.20;99.90;;;;;;5053031;23;20680;-90
2023/01/31 09:02:20;;;;;;;13.68;4.15;;;7.10;1.00;;;;;;4993937;28;20191;-90
2023/01/31 09:12:34;;;;;;;22.15;4.30;;;7.30;18.60;;;;;;1474530;26;20223;-89
2023/01/31 09:15:07;;;;;;;15.07;4.47;;;7.20;99.90;;;;;;4970452;28;20294;-90
2023/01/31 09:17:35;;;;;;;14.20;4.50;;;7.30;99.90;;;;;;4976806;28;20195;-89
2023/01/31 09:20:05;;;;;;;18.13;4.18;;;7.40;99.90;;;;;;4970586;28;20200;-89
2023/01/31 09:22:32;;;;;;;25.40;5.63;;;7.50;99.90;;;;;;4967222;28;20203;-88
2023/01/31 09:25:10;;;;;;;15.88;4.40;;;7.50;37.50;;;;;;4967761;28;21025;-88
2023/01/31 09:27:41;;;;;;;15.03;4.30;;;7.50;1.00;;;;;;4972896;28;20184;-90
2023/01/31 09:30:14;;;;;;;24.08;5.45;;;7.40;62.90;;;;;;4966630;28;20826;-89
2023/01/31 09:32:48;;;;;;;10.70;4.30;;;7.40;99.90;;;;;;4961116;28;20250;-93
2023/01/31 09:35:15;;;;;;;11.52;3.90;;;7.50;99.90;;;;;;4982577;28;20182;-89
2023/01/31 09:37:46;;;;;;;13.77;4.53;;;7.60;99.90;;;;;;4973022;28;20597;-89
2023/01/31 09:40:59;;;;;;;17.08;4.40;;;7.60;99.90;;;;;;4959543;28;20187;-90
2023/01/31 09:47:03;;;;;;;18.58;4.00;;;7.70;99.90;;;;;;4930230;29;20248;-88
2023/01/31 09:56:00;;;;;;;14.15;4.38;;;7.70;1.00;;;;;;5062930;23;20235;-89
2023/01/31 09:58:35;;;;;;;13.30;5.30;;;7.80;1.00;;;;;;4991696;28;20267;-89
2023/01/31 10:01:20;;;;;;;12.43;4.30;;;7.80;1.00;;;;;;4989416;28;20441;-89
2023/01/31 10:04:08;;;;;;;10.80;3.90;;;7.80;26.60;;;;;;5001574;28;20475;-89
2023/01/31 10:06:44;;;;;;;13.88;5.00;;;7.80;12.10;;;;;;4962591;28;20180;-88
2023/01/31 10:09:14;;;;;;;15.32;5.40;;;7.90;1.00;;;;;;4968746;28;20192;-89
2023/01/31 10:11:47;;;;;;;11.10;4.80;;;7.90;1.00;;;;;;4958054;28;20192;-89
2023/01/31 10:14:46;;;;;;;22.95;6.43;;;7.80;1.00;;;;;;4982983;28;20482;-89
2023/01/31 10:17:21;;;;;;;12.37;5.13;;;7.80;94.90;;;;;;4975047;28;20188;-90
2023/01/31 10:20:01;;;;;;;16.63;5.70;;;7.90;90.40;;;;;;4972588;28;20466;-90
2023/01/31 10:22:41;;;;;;;18.50;6.07;;;8.00;1.00;;;;;;4974936;28;20179;-89
2023/01/31 10:25:26;;;;;;;17.73;6.22;;;7.90;59.60;;;;;;4967490;28;20443;-90
2023/01/31 10:28:00;;;;;;;14.75;5.35;;;7.80;99.90;;;;;;4973151;28;20292;-89
2023/01/31 10:30:54;;;;;;;18.00;4.90;;;7.80;1.00;;;;;;4991380;28;20188;-90
2023/01/31 10:33:42;;;;;;;14.55;5.45;;;7.70;99.90;;;;;;5009688;28;20275;-89
2023/01/31 10:36:39;;;;;;;17.70;5.78;;;7.70;1.00;;;;;;4976706;28;20209;-90
2023/01/31 10:39:25;;;;;;;13.30;5.05;;;7.70;99.90;;;;;;4968681;28;20565;-90
2023/01/31 10:42:10;;;;;;;18.20;6.90;;;8.00;99.90;;;;;;4973274;28;20184;-89
2023/01/31 10:44:42;;;;;;;12.83;5.50;;;8.40;52.80;;;;;;4978638;28;20997;-89
2023/01/31 10:47:54;;;;;;;18.37;5.27;;;8.70;99.90;;;;;;4980589;28;20462;-90
2023/01/31 10:51:17;;;;;;;17.00;5.37;;;8.80;1.00;;;;;;4981193;28;20431;-90
2023/01/31 10:54:11;;;;;;;12.83;5.80;;;8.70;99.90;;;;;;4973352;28;20455;-90
2023/01/31 10:56:42;;;;;;;14.03;6.40;;;8.90;99.90;;;;;;4981758;28;20462;-89
2023/01/31 10:59:39;;;;;;;16.63;5.13;;;9.10;3.50;;;;;;4978795;28;20791;-89
2023/01/31 11:02:28;;;;;;;15.27;5.90;;;9.30;1.00;;;;;;4971648;28;20439;-91
2023/01/31 11:04:58;;;;;;;17.00;5.40;;;9.40;1.00;;;;;;4986895;28;20482;-90
2023/01/31 11:07:33;;;;;;;11.97;5.97;;;9.30;99.90;;;;;;4978934;28;20451;-90
2023/01/31 11:10:21;;;;;;;21.40;6.00;;;9.30;99.90;;;;;;4957447;28;20457;-89
2023/01/31 11:13:00;;;;;;;13.20;5.90;;;9.20;99.90;;;;;;4973847;28;20501;-88
2023/01/31 11:15:28;;;;;;;15.33;6.30;;;9.20;99.90;;;;;;4972522;28;20446;-87
2023/01/31 11:17:59;;;;;;;17.53;6.37;;;9.20;99.90;;;;;;4969114;28;20438;-89
2023/01/31 11:20:31;;;;;;;9.80;5.70;;;9.20;99.90;;;;;;4985792;28;20442;-88
2023/01/31 11:22:58;;;;;;;12.20;6.70;;;9.20;99.90;;;;;;4967667;28;20550;-87
2023/01/31 11:25:45;;;;;;;19.00;6.43;;;9.00;99.90;;;;;;4973620;28;20444;-88
2023/01/31 11:28:33;;;;;;;18.70;7.43;;;8.90;1.00;;;;;;4968714;28;20435;-87
2023/01/31 11:31:04;;;;;;;13.87;6.70;;;8.70;1.00;;;;;;4987972;28;20938;-87
2023/01/31 11:34:00;;;;;;;12.87;6.27;;;8.60;72.20;;;;;;4976525;28;20455;-87
2023/01/31 11:36:31;;;;;;;17.73;6.07;;;8.50;99.90;;;;;;4975028;28;20439;-87
2023/01/31 11:38:57;;;;;;;12.37;6.47;;;8.40;1.00;;;;;;4979563;28;20449;-87
2023/01/31 11:41:36;;;;;;;13.77;7.27;;;8.40;1.00;;;;;;4973446;28;20451;-87
2023/01/31 11:44:11;;;;;;;21.90;10.10;;;8.30;99.90;;;;;;4964353;28;20244;-89
2023/01/31 11:46:47;;;;;;;11.00;6.73;;;8.20;1.00;;;;;;4984028;28;20522;-86
2023/01/31 11:49:27;;;;;;;15.20;6.18;;;8.20;66.70;;;;;;4990908;28;20423;-86
2023/01/31 11:51:53;;;;;;;12.32;6.45;;;8.10;99.90;;;;;;4972792;28;20179;-87
2023/01/31 11:54:25;;;;;;;13.57;6.75;;;8.00;1.00;;;;;;5002868;28;20307;-86
2023/01/31 11:56:51;;;;;;;10.83;5.87;;;8.00;86.50;;;;;;4968477;28;20200;-88
2023/01/31 11:59:24;;;;;;;17.27;7.30;;;8.10;99.90;;;;;;4989211;28;20535;-88
2023/01/31 12:01:52;;;;;;;15.80;6.30;;;8.20;99.90;;;;;;4970431;28;20184;-87
2023/01/31 12:04:40;;;;;;;16.57;6.77;;;8.30;99.90;;;;;;4972043;28;20471;-88
2023/01/31 12:07:40;;;;;;;12.87;7.27;;;8.20;99.90;;;;;;4974092;28;20435;-87
2023/01/31 12:10:32;;;;;;;15.70;7.87;;;8.40;99.90;;;;;;4982603;28;20600;-87
2023/01/31 12:13:00;;;;;;;16.20;6.83;;;8.60;1.00;;;;;;4964906;28;20951;-87
2023/01/31 12:15:28;;;;;;;16.43;6.53;;;8.70;99.90;;;;;;4969568;28;20930;-88
2023/01/31 12:17:55;;;;;;;17.97;7.57;;;8.70;83.10;;;;;;4963779;28;20438;-87
2023/01/31 12:20:43;;;;;;;14.00;7.53;;;8.60;26.20;;;;;;4992680;28;20422;-89
2023/01/31 12:23:40;;;;;;;11.40;5.90;;;8.50;99.90;;;;;;4982067;28;20478;-88
2023/01/31 12:26:12;;;;;;;15.68;7.00;;;8.40;1.00;;;;;;4974524;28;20827;-88
2023/01/31 12:28:44;;;;;;;23.43;7.00;;;8.30;99.90;;;;;;4972854;28;20184;-88
2023/01/31 12:31:35;;;;;;;10.07;6.80;;;8.20;1.00;;;;;;4980834;28;20455;-87
2023/01/31 12:34:23;;;;;;;20.50;7.10;;;8.20;24.70;;;;;;4982289;28;20462;-88
2023/01/31 12:37:05;;;;;;;19.13;7.00;;;8.10;99.90;;;;;;4972141;28;20482;-89
2023/01/31 12:39:44;;;;;;;16.73;6.65;;;8.10;99.90;;;;;;4979858;28;20430;-88
2023/01/31 12:42:48;;;;;;;14.30;7.70;;;8.10;1.00;;;;;;4974151;28;20200;-87
2023/01/31 12:45:46;;;;;;;19.77;8.63;;;8.10;1.00;;;;;;4998241;28;20447;-88
2023/01/31 12:48:40;;;;;;;15.13;6.57;;;8.10;1.00;;;;;;4974253;28;20445;-88
2023/01/31 12:51:08;;;;;;;15.23;7.72;;;8.10;1.00;;;;;;4978545;28;20531;-88
2023/01/31 12:54:12;;;;;;;18.80;7.57;;;8.10;75.60;;;;;;4986761;28;20204;-88
2023/01/31 12:57:22;;;;;;;16.27;6.43;;;8.20;1.50;;;;;;4979874;28;20254;-89
2023/01/31 13:00:25;;;;;;;25.17;7.40;;;8.30;1.00;;;;;;4979240;28;20428;-88
2023/01/31 13:03:07;;;;;;;18.00;7.40;;;8.30;1.00;;;;;;4990067;28;20470;-87
2023/01/31 13:05:46;;;;;;;14.37;6.43;;;8.30;1.00;;;;;;4964888;28;20184;-87
2023/01/31 13:08:27;;;;;;;12.77;7.03;;;8.30;1.00;;;;;;4972563;28;20860;-87
2023/01/31 13:11:21;;;;;;;14.10;6.60;;;8.30;1.00;;;;;;4965353;28;20431;-87
2023/01/31 13:13:55;;;;;;;13.73;6.47;;;8.30;1.00;;;;;;4977930;28;20851;-87
2023/01/31 13:16:40;;;;;;;14.05;7.15;;;8.30;1.00;;;;;;4971486;28;20439;-86
2023/01/31 13:19:46;;;;;;;20.05;7.63;;;8.30;1.00;;;;;;4964991;28;20193;-88
2023/01/31 13:26:15;;;;;;;;;;;;;;;;;;;;;
2023/01/31 13:32:44;;;;;;;14.73;9.07;;;8.30;1.00;;;;;;4967473;28;20191;-88
2023/01/31 13:42:14;;;;;;;20.37;10.30;;;8.30;99.90;;;;;;4927014;29;21007;-87
2023/01/31 13:44:53;;;;;;;18.55;9.85;;;8.30;99.90;;;;;;4930881;29;20864;-89
2023/01/31 13:48:11;;;;;;;;;;;;;;;;;;;;;
2023/01/31 13:51:19;;;;;;;23.05;11.00;;;8.30;99.90;;;;;;4944580;29;20605;-87
2023/01/31 13:53:54;;;;;;;20.60;11.27;;;8.20;99.90;;;;;;4875578;29;20207;-87
2023/01/31 13:56:25;;;;;;;22.93;11.30;;;8.20;99.90;;;;;;4912294;29;20485;-88
2023/01/31 13:58:53;;;;;;;20.95;11.15;;;8.20;99.90;;;;;;4937952;28;20454;-89
2023/01/31 14:01:24;;;;;;;25.33;12.40;;;8.20;99.90;;;;;;4975866;28;20184;-88
2023/01/31 14:04:08;;;;;;;20.00;11.00;;;8.20;99.90;;;;;;4975932;28;20476;-87
2023/01/31 14:06:53;;;;;;;23.10;12.35;;;8.20;1.00;;;;;;4991183;28;20177;-88
2023/01/31 14:09:38;;;;;;;17.33;11.15;;;8.10;1.00;;;;;;4958389;28;20192;-87
2023/01/31 14:12:16;;;;;;;19.63;11.98;;;8.00;1.00;;;;;;4974699;28;20187;-88
2023/01/31 14:14:50;;;;;;;19.20;11.43;;;8.00;1.00;;;;;;4985854;28;20202;-88
2023/01/31 14:17:28;;;;;;;25.27;12.10;;;8.00;1.00;;;;;;4981310;28;20180;-88
2023/01/31 14:19:54;;;;;;;20.10;12.55;;;8.00;1.00;;;;;;4968123;28;20274;-88
2023/01/31 14:22:24;;;;;;;15.83;11.67;;;8.00;1.00;;;;;;4970063;28;20276;-87
2023/01/31 14:24:55;;;;;;;19.10;11.57;;;8.00;1.00;;;;;;4977425;28;20222;-87
2023/01/31 14:28:01;;;;;;;20.70;10.63;;;7.90;1.00;;;;;;4972109;28;20443;-88
2023/01/31 14:30:42;;;;;;;36.42;22.75;;;7.90;1.00;;;;;;4955790;28;20199;-88
2023/01/31 14:33:29;;;;;;;14.52;9.32;;;7.90;1.00;;;;;;4966039;28;20295;-88
2023/01/31 14:36:16;;;;;;;19.85;11.13;;;7.90;1.00;;;;;;4971215;28;20196;-88
2023/01/31 14:38:54;;;;;;;18.93;12.50;;;7.90;1.00;;;;;;4985316;28;20636;-88
2023/01/31 14:41:39;;;;;;;19.43;13.17;;;7.90;1.00;;;;;;4973233;28;20472;-88
2023/01/31 14:44:26;;;;;;;24.55;14.48;;;7.90;1.00;;;;;;4973097;28;21002;-88
2023/01/31 14:47:06;;;;;;;20.87;14.70;;;7.80;1.00;;;;;;4964896;28;20188;-88
2023/01/31 14:49:52;;;;;;;23.58;11.75;;;7.80;1.00;;;;;;4968962;28;20448;-89
2023/01/31 14:52:27;;;;;;;23.10;13.68;;;7.80;1.00;;;;;;4977026;28;20188;-88
2023/01/31 14:55:18;;;;;;;21.57;13.70;;;7.80;1.00;;;;;;4988601;28;20646;-88
2023/01/31 14:57:48;;;;;;;18.38;13.73;;;7.70;1.00;;;;;;4971698;28;20453;-88
2023/01/31 15:00:48;;;;;;;25.80;15.80;;;7.70;1.00;;;;;;4970370;28;20190;-88
2023/01/31 15:03:32;;;;;;;22.42;13.57;;;7.70;1.00;;;;;;4929928;28;20319;-89
2023/01/31 15:06:25;;;;;;;26.67;13.57;;;7.60;1.00;;;;;;4964903;28;20221;-88
2023/01/31 15:09:14;;;;;;;18.30;11.48;;;7.60;1.00;;;;;;4971027;28;20191;-87
2023/01/31 15:11:56;;;;;;;22.40;13.80;;;7.60;1.00;;;;;;4967389;28;20184;-88
2023/01/31 15:14:36;;;;;;;19.35;14.20;;;7.60;1.00;;;;;;4972691;28;20212;-87
2023/01/31 15:17:17;;;;;;;19.52;14.25;;;7.60;1.00;;;;;;4973113;28;20548;-88
2023/01/31 15:19:51;;;;;;;19.50;13.63;;;7.60;1.00;;;;;;4969930;28;20243;-88
2023/01/31 15:22:19;;;;;;;15.73;13.05;;;7.60;1.00;;;;;;4985183;28;20583;-87
2023/01/31 15:24:48;;;;;;;18.92;13.20;;;7.50;1.00;;;;;;4964745;28;20208;-88
2023/01/31 15:27:41;;;;;;;18.45;12.85;;;7.50;1.00;;;;;;4972378;28;20529;-88
2023/01/31 15:30:18;;;;;;;18.52;12.60;;;7.60;1.00;;;;;;4975746;28;20802;-88
2023/01/31 15:33:09;;;;;;;19.27;12.45;;;7.60;1.00;;;;;;4976834;28;20184;-87
2023/01/31 15:35:49;;;;;;;15.32;12.93;;;7.60;1.00;;;;;;4973776;28;20212;-87
2023/01/31 15:38:34;;;;;;;22.25;13.73;;;7.60;1.00;;;;;;4978439;28;20180;-86
2023/01/31 15:41:37;;;;;;;19.40;13.00;;;7.60;1.00;;;;;;4968463;28;20241;-88
2023/01/31 15:44:17;;;;;;;16.35;12.15;;;7.60;1.00;;;;;;4968001;28;20708;-87
2023/01/31 15:46:45;;;;;;;22.98;14.00;;;7.60;1.00;;;;;;4966373;28;20184;-88
2023/01/31 15:49:26;;;;;;;16.83;13.83;;;7.60;1.00;;;;;;4979992;28;20188;-89
2023/01/31 15:52:02;;;;;;;21.83;12.82;;;7.60;1.00;;;;;;4982311;28;20807;-88
2023/01/31 15:54:28;;;;;;;17.08;12.98;;;7.60;1.00;;;;;;4969860;28;20208;-89
2023/01/31 15:56:54;;;;;;;23.15;14.55;;;7.60;1.00;;;;;;4968211;28;20204;-90
2023/01/31 15:59:25;;;;;;;23.33;13.90;;;7.60;1.00;;;;;;4965849;28;20195;-92
2023/01/31 16:01:57;;;;;;;18.35;13.73;;;7.60;1.00;;;;;;4972183;28;20212;-90
2023/01/31 16:04:23;;;;;;;19.90;13.23;;;7.60;1.00;;;;;;4973135;28;20258;-91
2023/01/31 16:06:50;;;;;;;24.90;14.53;;;7.60;1.00;;;;;;4974644;28;20200;-89